createdAt,value
2022-10-28T00:02:08.098Z,95.70
2022-10-28T00:07:11.472Z,95.75
2022-10-28T00:12:14.673Z,95.78
2022-10-28T00:17:17.734Z,95.83
2022-10-28T00:22:20.986Z,95.81
2022-10-28T00:27:24.093Z,95.85
2022-10-28T00:32:31.499Z,95.89
2022-10-28T00:37:34.707Z,95.92
2022-10-28T00:42:37.583Z,95.96
2022-10-28T00:47:56.848Z,95.93
2022-10-28T00:53:25.904Z,95.95
2022-10-28T00:58:30.240Z,95.96
2022-10-28T01:03:33.447Z,95.93
2022-10-28T01:08:36.658Z,95.98
2022-10-28T01:14:16.932Z,95.98
2022-10-28T01:19:38.777Z,96.06
2022-10-28T01:25:12.808Z,96.23
2022-10-28T01:30:23.803Z,96.36
2022-10-28T01:35:37.655Z,96.41
2022-10-28T01:41:06.470Z,96.48
2022-10-28T01:46:22.062Z,96.65
2022-10-28T01:51:47.797Z,96.59
2022-10-28T01:56:53.565Z,96.67
2022-10-28T02:01:57.470Z,96.64
2022-10-28T02:07:01.622Z,96.55
2022-10-28T02:12:20.393Z,96.49
2022-10-28T02:18:01.080Z,96.44
2022-10-28T02:23:53.038Z,96.53
2022-10-28T02:29:01.947Z,96.54
2022-10-28T02:34:11.835Z,96.53
2022-10-28T02:39:16.807Z,96.52
2022-10-28T02:44:26.559Z,96.56
2022-10-28T02:49:32.109Z,96.59
2022-10-28T02:54:42.813Z,96.70
2022-10-28T02:59:54.723Z,96.88
2022-10-28T03:04:58.122Z,96.96
2022-10-28T03:10:01.252Z,97.00
2022-10-28T03:15:06.172Z,97.06
2022-10-28T03:20:10.197Z,97.10
2022-10-28T03:25:13.406Z,97.14
2022-10-28T03:30:18.764Z,97.22
2022-10-28T03:35:21.874Z,97.27
2022-10-28T03:40:25.282Z,97.31
2022-10-28T03:50:36.409Z,97.37
2022-10-28T03:55:39.412Z,97.40
2022-10-28T04:00:42.930Z,97.43
2022-10-28T04:05:48.684Z,97.45
2022-10-28T04:10:51.808Z,97.49
2022-10-28T04:15:55.416Z,97.56
2022-10-28T04:20:58.933Z,97.63
2022-10-28T04:26:02.142Z,97.68
2022-10-28T04:31:05.865Z,97.73
2022-10-28T04:36:09.377Z,97.79
2022-10-28T04:41:14.719Z,97.84
2022-10-28T04:46:17.951Z,97.89
2022-10-28T04:51:21.151Z,97.92
2022-10-28T04:56:25.179Z,97.94
2022-10-28T05:01:28.431Z,97.97
2022-10-28T05:06:31.617Z,98.01
2022-10-28T05:11:34.802Z,98.03
2022-10-28T05:16:37.909Z,98.06
2022-10-28T05:21:41.116Z,98.08
2022-10-28T05:26:44.119Z,98.10
2022-10-28T05:31:47.531Z,98.12
2022-10-28T05:36:51.250Z,98.16
2022-10-28T05:41:54.357Z,98.18
2022-10-28T05:46:57.462Z,98.21
2022-10-28T05:52:00.776Z,98.22
2022-10-28T05:57:04.495Z,98.24
2022-10-28T06:02:15.187Z,98.27
2022-10-28T06:07:18.384Z,98.28
2022-10-28T06:12:19.884Z,98.30
2022-10-28T06:17:24.089Z,98.30
2022-10-28T06:22:27.301Z,98.31
2022-10-28T06:27:30.821Z,98.32
2022-10-28T06:32:34.135Z,98.34
2022-10-28T06:37:37.755Z,98.36
2022-10-28T06:42:40.972Z,98.40
2022-10-28T06:47:45.489Z,98.43
2022-10-28T06:52:48.607Z,98.42
2022-10-28T06:57:52.052Z,98.42
2022-10-28T07:02:56.860Z,98.41
2022-10-28T07:08:00.181Z,98.39
2022-10-28T07:13:03.494Z,98.36
2022-10-28T07:18:06.709Z,98.33
2022-10-28T07:23:09.917Z,98.29
2022-10-28T07:28:13.437Z,98.25
2022-10-28T07:33:17.056Z,98.04
2022-10-28T07:38:20.268Z,96.71
2022-10-28T07:43:23.583Z,92.55
2022-10-28T07:48:26.783Z,83.90
2022-10-28T07:53:31.012Z,75.75
2022-10-28T07:58:34.422Z,70.43
2022-10-28T08:03:38.989Z,60.67
2022-10-28T08:08:42.462Z,52.76
2022-10-28T08:13:46.579Z,47.27
2022-10-28T08:18:49.677Z,43.16
2022-10-28T08:23:54.929Z,41.73
2022-10-28T08:28:58.656Z,40.71
2022-10-28T08:34:01.857Z,37.87
2022-10-28T08:39:05.166Z,35.96
2022-10-28T08:44:42.376Z,35.96
2022-10-28T08:49:49.354Z,33.62
2022-10-28T08:55:07.858Z,33.52
2022-10-28T09:00:20.210Z,37.31
2022-10-28T09:05:26.039Z,36.69
2022-10-28T09:10:51.768Z,37.18
2022-10-28T09:16:02.964Z,35.65
2022-10-28T09:21:15.388Z,36.21
2022-10-28T09:26:41.227Z,39.02
2022-10-28T09:31:50.372Z,39.92
2022-10-28T09:37:03.720Z,37.71
2022-10-28T09:42:10.920Z,35.94
2022-10-28T09:47:26.109Z,34.91
2022-10-28T09:52:40.290Z,35.48
2022-10-28T09:57:44.608Z,40.51
2022-10-28T10:02:48.714Z,44.35
2022-10-28T10:08:03.619Z,47.83
2022-10-28T10:13:08.597Z,52.30
2022-10-28T10:18:20.454Z,54.23
2022-10-28T10:23:33.985Z,54.66
2022-10-28T10:28:47.275Z,57.12
2022-10-28T10:33:53.912Z,59.14
2022-10-28T10:38:59.166Z,60.49
2022-10-28T10:44:02.889Z,62.16
2022-10-28T10:49:15.597Z,61.06
2022-10-28T10:54:19.597Z,62.98
2022-10-28T10:59:30.012Z,63.47
2022-10-28T11:04:37.072Z,64.79
2022-10-28T11:09:42.627Z,64.87
2022-10-28T11:14:58.279Z,64.27
2022-10-28T11:20:25.307Z,65.54
2022-10-28T11:25:47.153Z,64.95
2022-10-28T11:31:02.855Z,65.80
2022-10-28T11:36:23.461Z,65.89
2022-10-28T11:41:58.536Z,66.24
2022-10-28T11:47:34.698Z,66.79
2022-10-28T11:52:50.096Z,66.68
2022-10-28T11:58:02.187Z,66.90
2022-10-28T12:03:38.183Z,67.34
2022-10-28T12:09:01.516Z,67.09
2022-10-28T12:14:29.557Z,67.15
2022-10-28T12:19:44.232Z,67.72
2022-10-28T12:24:47.634Z,68.63
2022-10-28T12:29:56.283Z,69.58
2022-10-28T12:35:10.233Z,71.30
2022-10-28T12:40:28.517Z,72.27
2022-10-28T12:45:32.832Z,71.85
2022-10-28T12:50:46.999Z,73.08
2022-10-28T12:56:00.075Z,73.91
2022-10-28T13:01:16.223Z,72.12
2022-10-28T13:06:47.208Z,73.57
2022-10-28T13:12:26.365Z,73.47
2022-10-28T13:17:48.099Z,73.82
2022-10-28T13:23:11.381Z,74.10
2022-10-28T13:28:18.582Z,74.75
2022-10-28T13:33:26.019Z,74.78
2022-10-28T13:38:29.503Z,75.46
2022-10-28T13:43:51.733Z,76.00
2022-10-28T13:49:25.071Z,75.71
2022-10-28T13:54:45.367Z,76.17
2022-10-28T13:59:57.699Z,76.88
2022-10-28T14:05:03.220Z,76.16
2022-10-28T14:10:37.604Z,76.17
2022-10-28T14:15:41.798Z,76.39
2022-10-28T14:20:48.109Z,76.55
2022-10-28T14:25:51.325Z,77.55
2022-10-28T14:31:09.964Z,78.15
2022-10-28T14:36:19.792Z,77.48
2022-10-28T14:41:39.507Z,77.22
2022-10-28T14:46:52.792Z,77.74
2022-10-28T14:51:58.658Z,78.67
2022-10-28T14:57:03.140Z,78.78
2022-10-28T15:02:21.938Z,79.25
2022-10-28T15:07:26.128Z,79.35
2022-10-28T15:12:30.125Z,79.96
2022-10-28T15:32:20.232Z,82.63
2022-10-28T15:37:28.609Z,82.55
2022-10-28T15:43:03.038Z,83.25
2022-10-28T15:48:13.884Z,83.50
2022-10-28T15:53:23.587Z,83.84
2022-10-28T15:58:33.814Z,84.75
2022-10-28T16:03:48.900Z,84.36
2022-10-28T16:09:12.075Z,85.03
2022-10-28T16:14:33.593Z,85.43
2022-10-28T16:19:40.404Z,84.46
2022-10-28T16:24:43.512Z,85.41
2022-10-28T16:29:46.718Z,84.87
2022-10-28T16:34:49.824Z,83.95
2022-10-28T16:39:54.466Z,85.37
2022-10-28T16:44:59.011Z,85.63
2022-10-28T16:50:03.236Z,85.85
2022-10-28T16:55:16.726Z,85.34
2022-10-28T17:00:20.511Z,85.19
2022-10-28T17:05:24.843Z,86.06
2022-10-28T17:10:28.768Z,86.59
2022-10-28T17:15:32.077Z,85.95
2022-10-28T17:20:36.133Z,86.93
2022-10-28T17:30:48.062Z,86.87
2022-10-28T17:35:51.466Z,87.01
2022-10-28T17:40:56.005Z,87.22
2022-10-28T17:46:06.892Z,87.38
2022-10-28T17:51:11.428Z,87.57
2022-10-28T17:56:14.730Z,87.54
2022-10-28T18:01:18.429Z,87.90
2022-10-28T18:06:21.771Z,88.60
2022-10-28T18:11:25.802Z,88.99
2022-10-28T18:16:29.213Z,88.89
2022-10-28T18:21:32.937Z,88.35
2022-10-28T18:26:38.187Z,87.98
2022-10-28T18:31:44.266Z,87.39
2022-10-28T18:36:47.483Z,88.45
2022-10-28T18:41:51.650Z,88.88
2022-10-28T18:46:55.528Z,88.33
2022-10-28T18:52:00.401Z,88.92
2022-10-28T18:57:04.609Z,89.36
2022-10-28T19:02:09.494Z,89.78
2022-10-28T19:07:13.686Z,89.36
2022-10-28T19:12:17.001Z,89.55
2022-10-28T19:17:20.205Z,89.75
2022-10-28T19:22:23.340Z,89.43
2022-10-28T19:27:26.624Z,88.49
2022-10-28T19:32:31.796Z,88.16
2022-10-28T19:37:35.495Z,88.06
2022-10-28T19:42:40.902Z,88.53
2022-10-28T19:47:45.290Z,89.04
2022-10-28T19:52:48.826Z,89.18
2022-10-28T19:57:53.047Z,89.57
2022-10-28T20:02:56.452Z,89.76
2022-10-28T20:08:01.096Z,89.97
2022-10-28T20:13:05.534Z,89.72
2022-10-28T20:18:08.635Z,89.51
2022-10-28T20:23:11.742Z,89.58
2022-10-28T20:28:16.590Z,89.21
2022-10-28T20:33:19.694Z,89.14
2022-10-28T20:38:24.463Z,89.62
2022-10-28T20:43:29.797Z,89.89
2022-10-28T20:48:33.827Z,90.20
2022-10-28T20:53:37.545Z,90.49
2022-10-28T20:58:40.761Z,90.49
2022-10-28T21:03:44.271Z,90.44
2022-10-28T21:08:47.585Z,90.27
2022-10-28T21:13:58.710Z,90.17
2022-10-28T21:19:02.111Z,89.99
2022-10-28T21:24:06.009Z,90.07
2022-10-28T21:29:09.219Z,90.32
2022-10-28T21:34:12.326Z,89.83
2022-10-28T21:39:15.327Z,90.03
2022-10-28T21:44:19.051Z,89.82
2022-10-28T21:49:22.157Z,89.94
2022-10-28T21:54:25.054Z,89.60
2022-10-28T21:59:28.364Z,88.91
2022-10-28T22:04:31.677Z,89.49
2022-10-28T22:09:36.610Z,89.59
2022-10-28T22:14:40.854Z,89.76
2022-10-28T22:19:43.858Z,90.16
2022-10-28T22:24:46.965Z,89.56
2022-10-28T22:29:49.968Z,90.38
2022-10-28T22:34:53.280Z,90.07
2022-10-28T22:39:56.178Z,90.49
2022-10-28T22:44:59.795Z,90.37
2022-10-28T22:50:03.824Z,90.73
2022-10-28T22:55:07.647Z,91.16
2022-10-28T23:00:11.932Z,91.46
2022-10-28T23:05:15.188Z,91.68
2022-10-28T23:10:18.396Z,91.93
2022-10-28T23:15:21.605Z,92.09
2022-10-28T23:20:25.921Z,91.58
2022-10-28T23:25:29.150Z,91.59
2022-10-28T23:30:32.977Z,91.54
2022-10-28T23:35:37.308Z,91.61
2022-10-28T23:40:40.432Z,91.23
2022-10-28T23:45:44.026Z,91.30
2022-10-28T23:50:48.137Z,90.51
2022-10-28T23:55:51.876Z,90.67
